sensor_id;sensor_type;location;lat;lon;timestamp;temperature;humidity
5415;DHT22;2730;51.512;7.504;2022-10-19T05:02:54;6.20;99.90
5415;DHT22;2730;51.512;7.504;2022-10-19T05:05:21;6.20;99.90
5415;DHT22;2730;51.512;7.504;2022-10-19T05:07:48;6.30;99.90
5415;DHT22;2730;51.512;7.504;2022-10-19T05:10:15;6.30;99.90
5415;DHT22;2730;51.512;7.504;2022-10-19T05:12:42;6.30;99.90
5415;DHT22;2730;51.512;7.504;2022-10-19T05:15:10;6.30;99.90
5415;DHT22;2730;51.512;7.504;2022-10-19T05:17:37;6.40;99.90
5415;DHT22;2730;51.512;7.504;2022-10-19T05:20:06;6.50;99.90
5415;DHT22;2730;51.512;7.504;2022-10-19T05:22:33;6.50;99.90
5415;DHT22;2730;51.512;7.504;2022-10-19T05:25:00;6.50;99.90
5415;DHT22;2730;51.512;7.504;2022-10-19T05:27:27;6.60;99.90
5415;DHT22;2730;51.512;7.504;2022-10-19T05:29:54;6.60;99.90
5415;DHT22;2730;51.512;7.504;2022-10-19T05:32:21;6.60;99.90
5415;DHT22;2730;51.512;7.504;2022-10-19T05:34:49;6.60;99.90
5415;DHT22;2730;51.512;7.504;2022-10-19T05:37:17;6.70;99.90
5415;DHT22;2730;51.512;7.504;2022-10-19T05:39:44;6.80;99.90
5415;DHT22;2730;51.512;7.504;2022-10-19T05:42:11;6.80;99.90
5415;DHT22;2730;51.512;7.504;2022-10-19T05:44:38;6.80;99.90
5415;DHT22;2730;51.512;7.504;2022-10-19T05:47:05;6.80;99.90
5415;DHT22;2730;51.512;7.504;2022-10-19T05:49:32;6.80;99.90
5415;DHT22;2730;51.512;7.504;2022-10-19T05:51:58;6.80;99.90
5415;DHT22;2730;51.512;7.504;2022-10-19T05:54:27;6.70;99.90
5415;DHT22;2730;51.512;7.504;2022-10-19T05:56:54;6.70;99.90
5415;DHT22;2730;51.512;7.504;2022-10-19T05:59:21;6.60;99.90
5415;DHT22;2730;51.512;7.504;2022-10-19T06:01:49;6.50;99.90
5415;DHT22;2730;51.512;7.504;2022-10-19T06:04:16;6.50;99.90
5415;DHT22;2730;51.512;7.504;2022-10-19T06:06:43;6.50;99.90
5415;DHT22;2730;51.512;7.504;2022-10-19T06:09:15;6.40;99.90
5415;DHT22;2730;51.512;7.504;2022-10-19T06:11:44;6.40;99.90
5415;DHT22;2730;51.512;7.504;2022-10-19T06:14:12;6.40;99.90
5415;DHT22;2730;51.512;7.504;2022-10-19T06:16:40;6.40;99.90
5415;DHT22;2730;51.512;7.504;2022-10-19T06:19:07;6.40;99.90
5415;DHT22;2730;51.512;7.504;2022-10-19T06:21:34;6.40;99.90
5415;DHT22;2730;51.512;7.504;2022-10-19T06:24:03;6.40;99.90
5415;DHT22;2730;51.512;7.504;2022-10-19T06:26:32;6.40;99.90
5415;DHT22;2730;51.512;7.504;2022-10-19T06:29:01;6.40;99.90
5415;DHT22;2730;51.512;7.504;2022-10-19T06:31:32;6.40;99.90
5415;DHT22;2730;51.512;7.504;2022-10-19T06:34:00;6.40;99.90
5415;DHT22;2730;51.512;7.504;2022-10-19T06:36:28;6.40;99.90
5415;DHT22;2730;51.512;7.504;2022-10-19T06:38:56;6.40;99.90
5415;DHT22;2730;51.512;7.504;2022-10-19T06:41:24;6.50;99.90
5415;DHT22;2730;51.512;7.504;2022-10-19T06:43:52;6.50;99.90
5415;DHT22;2730;51.512;7.504;2022-10-19T06:46:22;6.50;99.90
5415;DHT22;2730;51.512;7.504;2022-10-19T06:48:50;6.50;99.90
5415;DHT22;2730;51.512;7.504;2022-10-19T06:51:17;6.50;99.90
5415;DHT22;2730;51.512;7.504;2022-10-19T06:53:44;6.50;99.90
5415;DHT22;2730;51.512;7.504;2022-10-19T06:56:11;6.40;99.90
5415;DHT22;2730;51.512;7.504;2022-10-19T06:58:38;6.40;99.90
5415;DHT22;2730;51.512;7.504;2022-10-19T07:01:06;6.40;99.90
5415;DHT22;2730;51.512;7.504;2022-10-19T07:03:35;6.40;99.90
5415;DHT22;2730;51.512;7.504;2022-10-19T07:06:04;6.40;99.90
5415;DHT22;2730;51.512;7.504;2022-10-19T07:08:31;6.40;99.90
5415;DHT22;2730;51.512;7.504;2022-10-19T07:11:00;6.40;99.90
5415;DHT22;2730;51.512;7.504;2022-10-19T07:13:28;6.50;99.90
5415;DHT22;2730;51.512;7.504;2022-10-19T07:15:56;6.50;99.90
5415;DHT22;2730;51.512;7.504;2022-10-19T07:18:24;6.60;99.90
5415;DHT22;2730;51.512;7.504;2022-10-19T07:20:56;6.80;99.90
5415;DHT22;2730;51.512;7.504;2022-10-19T07:23:24;7.00;99.90
5415;DHT22;2730;51.512;7.504;2022-10-19T07:25:51;7.10;99.90
5415;DHT22;2730;51.512;7.504;2022-10-19T07:28:20;7.10;99.90
5415;DHT22;2730;51.512;7.504;2022-10-19T07:30:47;7.10;99.90
5415;DHT22;2730;51.512;7.504;2022-10-19T07:33:14;7.00;99.90
5415;DHT22;2730;51.512;7.504;2022-10-19T07:35:41;7.10;99.90
5415;DHT22;2730;51.512;7.504;2022-10-19T07:38:10;7.10;99.90
5415;DHT22;2730;51.512;7.504;2022-10-19T07:40:38;7.20;99.90
5415;DHT22;2730;51.512;7.504;2022-10-19T07:43:05;7.30;99.90
5415;DHT22;2730;51.512;7.504;2022-10-19T07:45:32;7.30;99.90
5415;DHT22;2730;51.512;7.504;2022-10-19T07:47:59;7.40;99.90
5415;DHT22;2730;51.512;7.504;2022-10-19T07:50:26;7.40;99.90
5415;DHT22;2730;51.512;7.504;2022-10-19T07:52:53;7.40;99.90
5415;DHT22;2730;51.512;7.504;2022-10-19T07:55:22;7.50;99.90
5415;DHT22;2730;51.512;7.504;2022-10-19T07:57:49;7.60;99.90
5415;DHT22;2730;51.512;7.504;2022-10-19T08:00:16;7.70;99.90
5415;DHT22;2730;51.512;7.504;2022-10-19T08:02:43;7.70;99.90
5415;DHT22;2730;51.512;7.504;2022-10-19T08:05:10;7.80;99.90
5415;DHT22;2730;51.512;7.504;2022-10-19T08:07:37;7.90;99.90
5415;DHT22;2730;51.512;7.504;2022-10-19T08:10:05;8.00;99.90
5415;DHT22;2730;51.512;7.504;2022-10-19T08:12:35;8.10;99.90
5415;DHT22;2730;51.512;7.504;2022-10-19T08:15:04;8.20;99.90
5415;DHT22;2730;51.512;7.504;2022-10-19T08:17:33;8.20;99.90
5415;DHT22;2730;51.512;7.504;2022-10-19T08:20:00;8.30;99.90
5415;DHT22;2730;51.512;7.504;2022-10-19T08:22:27;8.40;99.90
5415;DHT22;2730;51.512;7.504;2022-10-19T08:24:54;8.40;99.90
5415;DHT22;2730;51.512;7.504;2022-10-19T08:27:22;8.50;99.90
5415;DHT22;2730;51.512;7.504;2022-10-19T08:29:50;8.70;99.90
5415;DHT22;2730;51.512;7.504;2022-10-19T08:32:17;8.80;99.90
5415;DHT22;2730;51.512;7.504;2022-10-19T08:34:44;9.00;99.90
5415;DHT22;2730;51.512;7.504;2022-10-19T08:37:11;9.90;99.90
5415;DHT22;2730;51.512;7.504;2022-10-19T08:39:38;11.10;99.90
5415;DHT22;2730;51.512;7.504;2022-10-19T08:42:10;12.40;99.90
5415;DHT22;2730;51.512;7.504;2022-10-19T08:48:03;14.70;99.90
5415;DHT22;2730;51.512;7.504;2022-10-19T08:50:37;15.70;99.90
5415;DHT22;2730;51.512;7.504;2022-10-19T08:53:06;16.50;99.90
5415;DHT22;2730;51.512;7.504;2022-10-19T08:55:54;16.80;99.90
5415;DHT22;2730;51.512;7.504;2022-10-19T08:58:34;17.10;99.90
5415;DHT22;2730;51.512;7.504;2022-10-19T09:01:12;17.30;99.90
5415;DHT22;2730;51.512;7.504;2022-10-19T09:03:45;17.50;99.90
5415;DHT22;2730;51.512;7.504;2022-10-19T09:06:19;17.90;99.90
5415;DHT22;2730;51.512;7.504;2022-10-19T09:08:50;17.80;99.90
5415;DHT22;2730;51.512;7.504;2022-10-19T09:11:23;18.00;99.90
5415;DHT22;2730;51.512;7.504;2022-10-19T09:13:56;18.40;99.90
5415;DHT22;2730;51.512;7.504;2022-10-19T09:16:26;18.30;99.90
5415;DHT22;2730;51.512;7.504;2022-10-19T09:18:53;17.90;99.90
5415;DHT22;2730;51.512;7.504;2022-10-19T09:21:23;18.20;99.90
5415;DHT22;2730;51.512;7.504;2022-10-19T09:23:58;18.30;99.90
5415;DHT22;2730;51.512;7.504;2022-10-19T09:26:31;18.30;99.90
5415;DHT22;2730;51.512;7.504;2022-10-19T09:29:03;18.40;99.90
5415;DHT22;2730;51.512;7.504;2022-10-19T09:31:37;18.20;99.90
5415;DHT22;2730;51.512;7.504;2022-10-19T09:34:06;18.40;99.90
5415;DHT22;2730;51.512;7.504;2022-10-19T09:36:37;18.10;99.90
5415;DHT22;2730;51.512;7.504;2022-10-19T09:39:05;17.80;99.90
5415;DHT22;2730;51.512;7.504;2022-10-19T09:41:32;17.90;99.90
5415;DHT22;2730;51.512;7.504;2022-10-19T09:44:00;18.10;99.90
5415;DHT22;2730;51.512;7.504;2022-10-19T09:46:38;17.90;99.90
5415;DHT22;2730;51.512;7.504;2022-10-19T09:49:07;18.10;99.90
5415;DHT22;2730;51.512;7.504;2022-10-19T09:51:46;18.40;99.90
5415;DHT22;2730;51.512;7.504;2022-10-19T09:54:30;18.80;99.90
5415;DHT22;2730;51.512;7.504;2022-10-19T09:56:57;18.40;99.90
5415;DHT22;2730;51.512;7.504;2022-10-19T09:59:28;18.40;99.90
5415;DHT22;2730;51.512;7.504;2022-10-19T10:02:09;18.40;99.90
5415;DHT22;2730;51.512;7.504;2022-10-19T10:04:37;18.20;99.90
5415;DHT22;2730;51.512;7.504;2022-10-19T10:07:04;18.80;99.90
5415;DHT22;2730;51.512;7.504;2022-10-19T10:09:33;18.70;99.90
5415;DHT22;2730;51.512;7.504;2022-10-19T10:12:03;18.60;99.90
5415;DHT22;2730;51.512;7.504;2022-10-19T10:14:35;18.50;99.90
5415;DHT22;2730;51.512;7.504;2022-10-19T10:17:06;18.00;99.90
5415;DHT22;2730;51.512;7.504;2022-10-19T10:19:49;18.00;99.90
5415;DHT22;2730;51.512;7.504;2022-10-19T10:22:24;18.10;99.90
5415;DHT22;2730;51.512;7.504;2022-10-19T10:24:54;18.00;99.90
5415;DHT22;2730;51.512;7.504;2022-10-19T10:27:29;17.90;99.90
5415;DHT22;2730;51.512;7.504;2022-10-19T10:29:57;17.60;99.90
5415;DHT22;2730;51.512;7.504;2022-10-19T10:32:25;17.10;99.90
5415;DHT22;2730;51.512;7.504;2022-10-19T10:34:58;17.10;99.90
5415;DHT22;2730;51.512;7.504;2022-10-19T10:37:29;16.80;99.90
5415;DHT22;2730;51.512;7.504;2022-10-19T10:39:57;16.10;99.90
5415;DHT22;2730;51.512;7.504;2022-10-19T10:42:28;16.00;99.90
5415;DHT22;2730;51.512;7.504;2022-10-19T10:44:55;16.20;99.90
5415;DHT22;2730;51.512;7.504;2022-10-19T10:47:25;16.40;99.90
5415;DHT22;2730;51.512;7.504;2022-10-19T10:49:55;15.90;99.90
5415;DHT22;2730;51.512;7.504;2022-10-19T10:52:24;15.30;99.90
5415;DHT22;2730;51.512;7.504;2022-10-19T10:54:58;14.90;99.90
5415;DHT22;2730;51.512;7.504;2022-10-19T10:57:29;14.50;99.90
5415;DHT22;2730;51.512;7.504;2022-10-19T11:00:03;14.40;99.90
5415;DHT22;2730;51.512;7.504;2022-10-19T11:02:40;14.30;99.90
5415;DHT22;2730;51.512;7.504;2022-10-19T11:05:14;14.30;99.90
5415;DHT22;2730;51.512;7.504;2022-10-19T11:07:45;14.30;99.90
5415;DHT22;2730;51.512;7.504;2022-10-19T11:10:21;14.30;99.90
5415;DHT22;2730;51.512;7.504;2022-10-19T11:12:55;14.20;99.90
5415;DHT22;2730;51.512;7.504;2022-10-19T11:15:29;14.20;99.90
5415;DHT22;2730;51.512;7.504;2022-10-19T11:18:06;14.10;99.90
5415;DHT22;2730;51.512;7.504;2022-10-19T11:20:40;14.10;99.90
5415;DHT22;2730;51.512;7.504;2022-10-19T11:23:13;14.10;99.90
5415;DHT22;2730;51.512;7.504;2022-10-19T11:25:58;14.10;99.90
5415;DHT22;2730;51.512;7.504;2022-10-19T11:28:46;14.10;99.90
5415;DHT22;2730;51.512;7.504;2022-10-19T11:31:19;14.00;99.90
5415;DHT22;2730;51.512;7.504;2022-10-19T11:33:53;14.10;99.90
5415;DHT22;2730;51.512;7.504;2022-10-19T11:36:34;14.10;99.90
5415;DHT22;2730;51.512;7.504;2022-10-19T11:39:18;14.10;99.90
5415;DHT22;2730;51.512;7.504;2022-10-19T11:41:57;14.10;99.90
5415;DHT22;2730;51.512;7.504;2022-10-19T11:44:36;13.90;99.90
5415;DHT22;2730;51.512;7.504;2022-10-19T11:47:21;13.90;99.90
5415;DHT22;2730;51.512;7.504;2022-10-19T11:50:07;13.90;99.90
5415;DHT22;2730;51.512;7.504;2022-10-19T11:52:41;13.80;99.90
5415;DHT22;2730;51.512;7.504;2022-10-19T11:55:18;13.80;99.90
5415;DHT22;2730;51.512;7.504;2022-10-19T11:57:51;13.90;99.90
5415;DHT22;2730;51.512;7.504;2022-10-19T12:00:21;14.00;99.90
5415;DHT22;2730;51.512;7.504;2022-10-19T12:03:05;14.00;99.90
5415;DHT22;2730;51.512;7.504;2022-10-19T12:06:00;13.90;99.90
5415;DHT22;2730;51.512;7.504;2022-10-19T12:08:40;14.00;99.90
5415;DHT22;2730;51.512;7.504;2022-10-19T12:11:22;14.10;99.90
5415;DHT22;2730;51.512;7.504;2022-10-19T12:13:55;14.10;99.90
5415;DHT22;2730;51.512;7.504;2022-10-19T12:16:34;14.10;99.90
5415;DHT22;2730;51.512;7.504;2022-10-19T12:19:03;14.20;99.90
5415;DHT22;2730;51.512;7.504;2022-10-19T12:21:36;14.20;99.90
5415;DHT22;2730;51.512;7.504;2022-10-19T12:24:09;14.20;99.90
5415;DHT22;2730;51.512;7.504;2022-10-19T12:26:39;14.30;99.90
5415;DHT22;2730;51.512;7.504;2022-10-19T12:29:12;14.40;99.90
5415;DHT22;2730;51.512;7.504;2022-10-19T12:31:39;14.40;99.90
5415;DHT22;2730;51.512;7.504;2022-10-19T12:34:27;14.50;99.90
5415;DHT22;2730;51.512;7.504;2022-10-19T12:37:02;14.60;99.90
5415;DHT22;2730;51.512;7.504;2022-10-19T12:39:36;14.60;99.90
5415;DHT22;2730;51.512;7.504;2022-10-19T12:42:12;14.50;99.90
5415;DHT22;2730;51.512;7.504;2022-10-19T12:44:55;14.50;99.90
5415;DHT22;2730;51.512;7.504;2022-10-19T12:47:26;14.50;99.90
5415;DHT22;2730;51.512;7.504;2022-10-19T12:49:53;14.50;99.90
5415;DHT22;2730;51.512;7.504;2022-10-19T12:52:39;14.60;99.90
5415;DHT22;2730;51.512;7.504;2022-10-19T12:57:59;14.60;99.90
5415;DHT22;2730;51.512;7.504;2022-10-19T13:00:28;14.70;99.90
5415;DHT22;2730;51.512;7.504;2022-10-19T13:02:58;14.70;99.90
5415;DHT22;2730;51.512;7.504;2022-10-19T13:05:28;14.70;99.90
5415;DHT22;2730;51.512;7.504;2022-10-19T13:07:57;14.70;99.90
5415;DHT22;2730;51.512;7.504;2022-10-19T13:10:26;14.60;99.90
5415;DHT22;2730;51.512;7.504;2022-10-19T13:12:54;14.60;99.90
5415;DHT22;2730;51.512;7.504;2022-10-19T13:15:54;14.70;99.90
5415;DHT22;2730;51.512;7.504;2022-10-19T13:21:53;14.70;99.90
5415;DHT22;2730;51.512;7.504;2022-10-19T13:24:33;14.70;99.90
5415;DHT22;2730;51.512;7.504;2022-10-19T13:27:23;14.70;99.90
5415;DHT22;2730;51.512;7.504;2022-10-19T13:29:50;14.70;99.90
5415;DHT22;2730;51.512;7.504;2022-10-19T13:32:37;14.80;99.90
5415;DHT22;2730;51.512;7.504;2022-10-19T13:35:30;14.70;99.90
5415;DHT22;2730;51.512;7.504;2022-10-19T13:38:23;14.70;99.90
5415;DHT22;2730;51.512;7.504;2022-10-19T13:41:02;14.60;99.90
5415;DHT22;2730;51.512;7.504;2022-10-19T13:43:32;14.60;99.90
5415;DHT22;2730;51.512;7.504;2022-10-19T13:46:06;14.60;99.90
5415;DHT22;2730;51.512;7.504;2022-10-19T13:48:46;14.60;99.90
5415;DHT22;2730;51.512;7.504;2022-10-19T13:51:21;14.50;99.90
5415;DHT22;2730;51.512;7.504;2022-10-19T13:53:55;14.50;99.90
5415;DHT22;2730;51.512;7.504;2022-10-19T13:56:40;14.50;99.90
5415;DHT22;2730;51.512;7.504;2022-10-19T14:02:41;14.60;99.90
5415;DHT22;2730;51.512;7.504;2022-10-19T14:08:29;14.40;99.90
5415;DHT22;2730;51.512;7.504;2022-10-19T14:11:00;14.30;99.90
5415;DHT22;2730;51.512;7.504;2022-10-19T14:13:30;14.30;99.90
5415;DHT22;2730;51.512;7.504;2022-10-19T14:15:58;14.20;99.90
5415;DHT22;2730;51.512;7.504;2022-10-19T14:18:28;14.20;99.90
5415;DHT22;2730;51.512;7.504;2022-10-19T14:20:57;14.20;99.90
5415;DHT22;2730;51.512;7.504;2022-10-19T14:23:26;14.10;99.90
5415;DHT22;2730;51.512;7.504;2022-10-19T14:25:56;14.10;99.90
5415;DHT22;2730;51.512;7.504;2022-10-19T14:28:24;14.00;99.90
5415;DHT22;2730;51.512;7.504;2022-10-19T14:30:58;14.00;99.90
5415;DHT22;2730;51.512;7.504;2022-10-19T14:33:27;14.00;99.90
5415;DHT22;2730;51.512;7.504;2022-10-19T14:35:54;14.00;99.90
5415;DHT22;2730;51.512;7.504;2022-10-19T14:38:25;13.90;99.90
5415;DHT22;2730;51.512;7.504;2022-10-19T14:40:54;13.90;99.90
5415;DHT22;2730;51.512;7.504;2022-10-19T14:43:23;13.80;99.90
5415;DHT22;2730;51.512;7.504;2022-10-19T14:46:13;13.80;99.90
5415;DHT22;2730;51.512;7.504;2022-10-19T14:48:42;13.80;99.90
5415;DHT22;2730;51.512;7.504;2022-10-19T14:51:18;13.80;99.90
5415;DHT22;2730;51.512;7.504;2022-10-19T14:53:49;13.70;99.90
5415;DHT22;2730;51.512;7.504;2022-10-19T14:56:20;13.70;99.90
5415;DHT22;2730;51.512;7.504;2022-10-19T14:58:49;13.70;99.90
5415;DHT22;2730;51.512;7.504;2022-10-19T15:01:19;13.70;99.90
5415;DHT22;2730;51.512;7.504;2022-10-19T15:03:47;13.70;99.90
5415;DHT22;2730;51.512;7.504;2022-10-19T15:06:18;13.60;99.90
5415;DHT22;2730;51.512;7.504;2022-10-19T15:08:46;13.50;99.90
5415;DHT22;2730;51.512;7.504;2022-10-19T15:11:27;13.50;99.90
5415;DHT22;2730;51.512;7.504;2022-10-19T15:13:57;13.40;99.90
5415;DHT22;2730;51.512;7.504;2022-10-19T15:16:29;13.40;99.90
5415;DHT22;2730;51.512;7.504;2022-10-19T15:18:56;13.40;99.90
5415;DHT22;2730;51.512;7.504;2022-10-19T15:21:27;13.30;99.90
5415;DHT22;2730;51.512;7.504;2022-10-19T15:24:05;13.30;99.90
5415;DHT22;2730;51.512;7.504;2022-10-19T15:26:32;13.30;99.90
5415;DHT22;2730;51.512;7.504;2022-10-19T15:29:07;13.10;99.90
5415;DHT22;2730;51.512;7.504;2022-10-19T15:31:36;13.10;99.90
5415;DHT22;2730;51.512;7.504;2022-10-19T15:34:03;13.00;99.90
5415;DHT22;2730;51.512;7.504;2022-10-19T15:36:31;12.90;99.90
5415;DHT22;2730;51.512;7.504;2022-10-19T15:39:00;12.90;99.90
5415;DHT22;2730;51.512;7.504;2022-10-19T15:41:28;12.90;99.90
5415;DHT22;2730;51.512;7.504;2022-10-19T15:43:57;12.90;99.90
5415;DHT22;2730;51.512;7.504;2022-10-19T15:46:30;12.90;99.90
5415;DHT22;2730;51.512;7.504;2022-10-19T15:49:00;12.90;99.90
5415;DHT22;2730;51.512;7.504;2022-10-19T15:51:37;12.80;99.90
5415;DHT22;2730;51.512;7.504;2022-10-19T15:54:06;12.70;99.90
5415;DHT22;2730;51.512;7.504;2022-10-19T15:56:35;12.60;99.90
5415;DHT22;2730;51.512;7.504;2022-10-19T15:59:04;12.50;99.90
5415;DHT22;2730;51.512;7.504;2022-10-19T16:01:32;12.40;99.90
5415;DHT22;2730;51.512;7.504;2022-10-19T16:04:01;12.50;99.90
5415;DHT22;2730;51.512;7.504;2022-10-19T16:06:30;12.40;99.90
5415;DHT22;2730;51.512;7.504;2022-10-19T16:08:59;12.30;99.90
5415;DHT22;2730;51.512;7.504;2022-10-19T16:11:27;12.20;99.90
5415;DHT22;2730;51.512;7.504;2022-10-19T16:13:54;12.20;99.90
5415;DHT22;2730;51.512;7.504;2022-10-19T16:16:23;12.20;99.90
5415;DHT22;2730;51.512;7.504;2022-10-19T16:18:51;12.00;99.90
5415;DHT22;2730;51.512;7.504;2022-10-19T16:21:22;12.00;99.90
5415;DHT22;2730;51.512;7.504;2022-10-19T16:23:50;11.90;99.90
5415;DHT22;2730;51.512;7.504;2022-10-19T16:26:17;11.90;99.90
5415;DHT22;2730;51.512;7.504;2022-10-19T16:28:44;11.80;99.90
5415;DHT22;2730;51.512;7.504;2022-10-19T16:31:14;11.80;99.90
5415;DHT22;2730;51.512;7.504;2022-10-19T16:33:41;11.80;99.90
5415;DHT22;2730;51.512;7.504;2022-10-19T16:36:08;11.70;99.90
5415;DHT22;2730;51.512;7.504;2022-10-19T16:38:36;11.70;99.90
5415;DHT22;2730;51.512;7.504;2022-10-19T16:41:05;11.70;99.90
5415;DHT22;2730;51.512;7.504;2022-10-19T16:43:32;11.50;99.90
5415;DHT22;2730;51.512;7.504;2022-10-19T16:46:00;11.50;99.90
5415;DHT22;2730;51.512;7.504;2022-10-19T16:48:27;11.40;99.90
5415;DHT22;2730;51.512;7.504;2022-10-19T16:51:19;11.40;99.90
5415;DHT22;2730;51.512;7.504;2022-10-19T16:53:51;11.40;99.90
5415;DHT22;2730;51.512;7.504;2022-10-19T16:56:19;11.30;99.90
5415;DHT22;2730;51.512;7.504;2022-10-19T16:58:47;11.30;99.90
5415;DHT22;2730;51.512;7.504;2022-10-19T17:01:16;11.20;99.90
5415;DHT22;2730;51.512;7.504;2022-10-19T17:03:44;11.20;99.90
5415;DHT22;2730;51.512;7.504;2022-10-19T17:06:12;11.20;99.90
5415;DHT22;2730;51.512;7.504;2022-10-19T17:08:39;11.10;99.90
5415;DHT22;2730;51.512;7.504;2022-10-19T17:11:12;11.00;99.90
5415;DHT22;2730;51.512;7.504;2022-10-19T17:16:08;10.90;99.90
5415;DHT22;2730;51.512;7.504;2022-10-19T17:18:36;10.90;99.90
5415;DHT22;2730;51.512;7.504;2022-10-19T17:21:04;10.80;99.90
5415;DHT22;2730;51.512;7.504;2022-10-19T17:23:31;10.80;99.90
5415;DHT22;2730;51.512;7.504;2022-10-19T17:25:58;10.80;99.90
5415;DHT22;2730;51.512;7.504;2022-10-19T17:28:26;10.70;99.90
5415;DHT22;2730;51.512;7.504;2022-10-19T17:30:53;10.70;99.90
5415;DHT22;2730;51.512;7.504;2022-10-19T17:33:23;10.60;99.90
5415;DHT22;2730;51.512;7.504;2022-10-19T17:35:49;10.60;99.90
5415;DHT22;2730;51.512;7.504;2022-10-19T17:38:16;10.60;99.90
5415;DHT22;2730;51.512;7.504;2022-10-19T17:40:43;10.50;99.90
5415;DHT22;2730;51.512;7.504;2022-10-19T17:43:10;10.50;99.90
5415;DHT22;2730;51.512;7.504;2022-10-19T17:45:38;10.50;99.90
5415;DHT22;2730;51.512;7.504;2022-10-19T17:48:05;10.40;99.90
5415;DHT22;2730;51.512;7.504;2022-10-19T17:50:33;10.50;99.90
5415;DHT22;2730;51.512;7.504;2022-10-19T17:52:59;10.30;99.90
5415;DHT22;2730;51.512;7.504;2022-10-19T17:55:26;10.30;99.90
5415;DHT22;2730;51.512;7.504;2022-10-19T17:57:53;10.40;99.90
5415;DHT22;2730;51.512;7.504;2022-10-19T18:00:20;10.30;99.90
5415;DHT22;2730;51.512;7.504;2022-10-19T18:02:48;10.20;99.90
5415;DHT22;2730;51.512;7.504;2022-10-19T18:05:15;10.10;99.90
5415;DHT22;2730;51.512;7.504;2022-10-19T18:07:42;10.10;99.90
5415;DHT22;2730;51.512;7.504;2022-10-19T18:10:10;10.00;99.90
5415;DHT22;2730;51.512;7.504;2022-10-19T18:12:37;10.00;99.90
5415;DHT22;2730;51.512;7.504;2022-10-19T18:15:05;10.00;99.90
5415;DHT22;2730;51.512;7.504;2022-10-19T18:17:32;9.90;99.90
5415;DHT22;2730;51.512;7.504;2022-10-19T18:20:00;10.00;99.90
5415;DHT22;2730;51.512;7.504;2022-10-19T18:22:27;10.00;99.90
5415;DHT22;2730;51.512;7.504;2022-10-19T18:24:53;10.10;99.90
5415;DHT22;2730;51.512;7.504;2022-10-19T18:27:20;10.00;99.90
5415;DHT22;2730;51.512;7.504;2022-10-19T18:29:47;10.00;99.90
5415;DHT22;2730;51.512;7.504;2022-10-19T18:32:14;9.90;99.90
5415;DHT22;2730;51.512;7.504;2022-10-19T18:34:40;9.90;99.90
5415;DHT22;2730;51.512;7.504;2022-10-19T18:37:08;9.80;99.90
5415;DHT22;2730;51.512;7.504;2022-10-19T18:39:35;9.80;99.90
5415;DHT22;2730;51.512;7.504;2022-10-19T18:42:02;9.80;99.90
5415;DHT22;2730;51.512;7.504;2022-10-19T18:49:32;9.70;99.90
5415;DHT22;2730;51.512;7.504;2022-10-19T18:51:59;9.80;99.90
5415;DHT22;2730;51.512;7.504;2022-10-19T18:54:27;9.80;99.90
5415;DHT22;2730;51.512;7.504;2022-10-19T18:56:54;9.80;99.90
5415;DHT22;2730;51.512;7.504;2022-10-19T18:59:21;9.80;99.90
5415;DHT22;2730;51.512;7.504;2022-10-19T19:01:48;9.70;99.90
5415;DHT22;2730;51.512;7.504;2022-10-19T19:04:14;9.60;99.90
5415;DHT22;2730;51.512;7.504;2022-10-19T19:18:24;9.60;99.90
5415;DHT22;2730;51.512;7.504;2022-10-19T19:20:51;9.30;99.90
5415;DHT22;2730;51.512;7.504;2022-10-19T19:23:18;9.30;99.90
5415;DHT22;2730;51.512;7.504;2022-10-19T19:25:45;9.20;99.90
5415;DHT22;2730;51.512;7.504;2022-10-19T19:28:12;9.20;99.90
5415;DHT22;2730;51.512;7.504;2022-10-19T19:30:39;9.20;99.90
5415;DHT22;2730;51.512;7.504;2022-10-19T19:33:06;9.10;99.90
5415;DHT22;2730;51.512;7.504;2022-10-19T19:35:41;9.00;99.90
5415;DHT22;2730;51.512;7.504;2022-10-19T19:38:07;9.00;99.90
5415;DHT22;2730;51.512;7.504;2022-10-19T19:40:38;8.90;99.90
5415;DHT22;2730;51.512;7.504;2022-10-19T19:43:04;8.80;99.90
5415;DHT22;2730;51.512;7.504;2022-10-19T19:45:31;8.70;99.90
5415;DHT22;2730;51.512;7.504;2022-10-19T19:47:58;8.60;99.90
5415;DHT22;2730;51.512;7.504;2022-10-19T19:50:26;8.50;99.90
5415;DHT22;2730;51.512;7.504;2022-10-19T19:52:54;8.50;99.90
5415;DHT22;2730;51.512;7.504;2022-10-19T19:55:21;8.40;99.90
5415;DHT22;2730;51.512;7.504;2022-10-19T19:57:47;8.50;99.90
5415;DHT22;2730;51.512;7.504;2022-10-19T20:00:18;8.40;99.90
5415;DHT22;2730;51.512;7.504;2022-10-19T20:02:50;8.40;99.90
5415;DHT22;2730;51.512;7.504;2022-10-19T20:05:17;8.40;99.90
5415;DHT22;2730;51.512;7.504;2022-10-19T20:07:44;8.40;99.90
5415;DHT22;2730;51.512;7.504;2022-10-19T20:10:12;8.30;99.90
5415;DHT22;2730;51.512;7.504;2022-10-19T20:12:40;8.30;99.90
5415;DHT22;2730;51.512;7.504;2022-10-19T20:15:08;8.30;99.90
5415;DHT22;2730;51.512;7.504;2022-10-19T20:17:35;8.20;99.90
5415;DHT22;2730;51.512;7.504;2022-10-19T20:20:02;8.20;99.90
5415;DHT22;2730;51.512;7.504;2022-10-19T20:22:28;8.20;99.90
5415;DHT22;2730;51.512;7.504;2022-10-19T20:24:55;8.20;99.90
5415;DHT22;2730;51.512;7.504;2022-10-19T20:27:23;8.20;99.90
5415;DHT22;2730;51.512;7.504;2022-10-19T20:29:51;8.20;99.90
5415;DHT22;2730;51.512;7.504;2022-10-19T20:32:22;8.10;99.90
5415;DHT22;2730;51.512;7.504;2022-10-19T20:34:49;8.10;99.90
5415;DHT22;2730;51.512;7.504;2022-10-19T20:37:16;8.10;99.90
5415;DHT22;2730;51.512;7.504;2022-10-19T20:39:43;8.00;99.90
5415;DHT22;2730;51.512;7.504;2022-10-19T20:42:09;8.00;99.90
5415;DHT22;2730;51.512;7.504;2022-10-19T20:44:38;8.00;99.90
5415;DHT22;2730;51.512;7.504;2022-10-19T20:47:04;8.00;99.90
5415;DHT22;2730;51.512;7.504;2022-10-19T20:49:31;7.90;99.90
5415;DHT22;2730;51.512;7.504;2022-10-19T20:51:58;7.80;99.90
5415;DHT22;2730;51.512;7.504;2022-10-19T20:54:25;7.80;99.90
5415;DHT22;2730;51.512;7.504;2022-10-19T20:56:52;7.70;99.90
5415;DHT22;2730;51.512;7.504;2022-10-19T20:59:20;7.60;99.90
5415;DHT22;2730;51.512;7.504;2022-10-19T21:01:51;7.70;99.90
5415;DHT22;2730;51.512;7.504;2022-10-19T21:04:18;7.60;99.90
5415;DHT22;2730;51.512;7.504;2022-10-19T21:06:45;7.60;99.90
5415;DHT22;2730;51.512;7.504;2022-10-19T21:09:14;7.60;99.90
5415;DHT22;2730;51.512;7.504;2022-10-19T21:11:42;7.50;99.90
5415;DHT22;2730;51.512;7.504;2022-10-19T21:14:11;7.50;99.90
5415;DHT22;2730;51.512;7.504;2022-10-19T21:16:38;7.50;99.90
5415;DHT22;2730;51.512;7.504;2022-10-19T21:19:10;7.40;99.90
5415;DHT22;2730;51.512;7.504;2022-10-19T21:21:39;7.40;99.90
5415;DHT22;2730;51.512;7.504;2022-10-19T21:24:09;7.30;99.90
5415;DHT22;2730;51.512;7.504;2022-10-19T21:26:36;7.30;99.90
5415;DHT22;2730;51.512;7.504;2022-10-19T21:29:04;7.30;99.90
5415;DHT22;2730;51.512;7.504;2022-10-19T21:31:34;7.30;99.90
5415;DHT22;2730;51.512;7.504;2022-10-19T21:34:03;7.30;99.90
5415;DHT22;2730;51.512;7.504;2022-10-19T21:36:31;7.30;99.90
5415;DHT22;2730;51.512;7.504;2022-10-19T21:38:59;7.30;99.90
5415;DHT22;2730;51.512;7.504;2022-10-19T21:41:25;7.30;99.90
5415;DHT22;2730;51.512;7.504;2022-10-19T21:43:52;7.30;99.90
5415;DHT22;2730;51.512;7.504;2022-10-19T21:46:20;7.30;99.90
5415;DHT22;2730;51.512;7.504;2022-10-19T21:48:47;7.30;99.90
5415;DHT22;2730;51.512;7.504;2022-10-19T21:51:21;7.40;99.90
5415;DHT22;2730;51.512;7.504;2022-10-19T21:53:50;7.30;99.90
5415;DHT22;2730;51.512;7.504;2022-10-19T21:56:17;7.30;99.90
5415;DHT22;2730;51.512;7.504;2022-10-19T21:58:44;7.20;99.90
5415;DHT22;2730;51.512;7.504;2022-10-19T22:01:12;7.30;99.90
5415;DHT22;2730;51.512;7.504;2022-10-19T22:03:39;7.20;99.90
5415;DHT22;2730;51.512;7.504;2022-10-19T22:06:06;7.30;99.90